createdAt,value
2018-09-08T00:01:07.409Z,101612.92
2018-09-08T00:03:36.064Z,101609.46
2018-09-08T00:06:04.791Z,101601.78
2018-09-08T00:08:33.506Z,101609.39
2018-09-08T00:11:02.145Z,101607.53
2018-09-08T00:13:30.800Z,101605.33
2018-09-08T00:16:04.581Z,101606.37
2018-09-08T00:18:38.329Z,101608.85
2018-09-08T00:21:12.109Z,101611.58
2018-09-08T00:23:45.812Z,101605.98
2018-09-08T00:26:19.605Z,101604.75
2018-09-08T00:28:55.540Z,101605.68
2018-09-08T00:31:24.261Z,101612.69
2018-09-08T00:33:52.874Z,101611.89
2018-09-08T00:36:21.559Z,101618.86
2018-09-08T00:38:50.176Z,101605.30
2018-09-08T00:41:18.908Z,101604.13
2018-09-08T00:43:47.533Z,101621.94
2018-09-08T00:46:16.228Z,101624.52
2018-09-08T00:48:44.893Z,101614.08
2018-09-08T00:51:13.639Z,101623.67
2018-09-08T00:53:42.246Z,101627.77
2018-09-08T00:56:10.926Z,101626.75
2018-09-08T00:58:45.117Z,101631.95
2018-09-08T01:01:14.237Z,101627.52
2018-09-08T01:03:42.940Z,101628.67
2018-09-08T01:06:11.577Z,101632.58
2018-09-08T01:08:40.709Z,101634.28
2018-09-08T01:11:09.359Z,101634.25
2018-09-08T01:13:37.959Z,101641.69
2018-09-08T01:16:06.677Z,101641.34
2018-09-08T01:18:37.094Z,101643.71
2018-09-08T01:21:07.623Z,101645.47
2018-09-08T01:23:36.279Z,101651.05
2018-09-08T01:26:05.324Z,101651.30
2018-09-08T01:28:34.133Z,101648.71
2018-09-08T01:31:02.788Z,101649.80
2018-09-08T01:33:31.412Z,101647.73
2018-09-08T01:36:00.129Z,101648.05
2018-09-08T01:38:28.739Z,101650.91
2018-09-08T01:40:57.414Z,101652.19
2018-09-08T01:43:26.020Z,101644.27
2018-09-08T01:45:54.774Z,101643.16
2018-09-08T01:48:23.417Z,101643.22
2018-09-08T01:50:52.165Z,101648.08
2018-09-08T01:53:20.795Z,101649.69
2018-09-08T01:55:49.392Z,101655.62
2018-09-08T01:58:18.018Z,101653.42
2018-09-08T02:00:46.608Z,101649.00
2018-09-08T02:03:15.243Z,101646.63
2018-09-08T02:05:43.856Z,101649.89
2018-09-08T02:08:12.505Z,101656.57
2018-09-08T02:10:41.169Z,101656.66
2018-09-08T02:13:11.047Z,101649.47
2018-09-08T02:15:39.669Z,101655.92
2018-09-08T02:18:08.297Z,101653.06
2018-09-08T02:20:37.073Z,101662.22
2018-09-08T02:23:05.793Z,101655.73
2018-09-08T02:25:34.403Z,101658.38
2018-09-08T02:28:03.073Z,101657.13
2018-09-08T02:30:32.030Z,101654.16
2018-09-08T02:33:00.726Z,101654.61
2018-09-08T02:35:29.438Z,101655.73
2018-09-08T02:37:58.154Z,101653.73
2018-09-08T02:40:26.838Z,101658.34
2018-09-08T02:42:55.468Z,101655.38
2018-09-08T02:45:24.234Z,101654.65
2018-09-08T02:47:52.893Z,101654.02
2018-09-08T02:50:33.759Z,101651.02
2018-09-08T02:53:01.654Z,101665.92
2018-09-08T02:55:29.373Z,101667.77
2018-09-08T02:57:57.184Z,101662.19
2018-09-08T03:00:24.673Z,101664.56
2018-09-08T03:02:52.277Z,101666.02
2018-09-08T03:05:19.592Z,101668.08
2018-09-08T03:07:46.957Z,101667.22
2018-09-08T03:10:14.678Z,101666.79
2018-09-08T03:12:42.033Z,101671.61
2018-09-08T03:15:09.739Z,101678.63
2018-09-08T03:17:37.084Z,101676.75
2018-09-08T03:20:04.461Z,101678.08
2018-09-08T03:22:32.185Z,101679.12
2018-09-08T03:24:59.508Z,101685.22
2018-09-08T03:27:26.879Z,101678.47
2018-09-08T03:29:54.264Z,101683.78
2018-09-08T03:32:21.605Z,101681.38
2018-09-08T03:34:48.984Z,101686.34
2018-09-08T03:37:16.298Z,101686.64
2018-09-08T03:39:43.624Z,101695.70
2018-09-08T03:42:10.950Z,101694.89
2018-09-08T03:44:38.293Z,101700.47
2018-09-08T03:47:05.623Z,101693.67
2018-09-08T03:49:32.988Z,101689.73
2018-09-08T03:52:00.367Z,101689.65
2018-09-08T03:54:27.718Z,101685.37
2018-09-08T03:56:55.081Z,101691.98
2018-09-08T03:59:22.447Z,101688.78
2018-09-08T04:01:49.804Z,101692.77
2018-09-08T04:04:18.433Z,101689.48
2018-09-08T04:06:47.124Z,101696.14
2018-09-08T04:09:15.809Z,101697.71
2018-09-08T04:11:44.439Z,101690.20
2018-09-08T04:14:13.158Z,101683.67
2018-09-08T04:16:41.775Z,101692.18
2018-09-08T04:19:11.264Z,101689.45
2018-09-08T04:21:39.892Z,101691.28
2018-09-08T04:24:08.515Z,101694.71
2018-09-08T04:26:37.183Z,101696.86
2018-09-08T04:29:05.887Z,101698.70
2018-09-08T04:31:34.544Z,101703.50
2018-09-08T04:34:03.214Z,101703.69
2018-09-08T04:36:31.872Z,101700.70
2018-09-08T04:39:00.518Z,101698.44
2018-09-08T04:41:29.947Z,101699.97
2018-09-08T04:43:58.672Z,101702.19
2018-09-08T04:46:27.288Z,101702.24
2018-09-08T04:48:55.970Z,101708.52
2018-09-08T04:51:24.664Z,101705.94
2018-09-08T04:53:53.363Z,101712.30
2018-09-08T04:56:22.058Z,101718.56
2018-09-08T04:58:50.778Z,101722.45
2018-09-08T05:01:19.430Z,101718.28
2018-09-08T05:03:48.127Z,101718.59
2018-09-08T05:06:16.813Z,101723.94
2018-09-08T05:08:45.474Z,101727.77
2018-09-08T05:11:14.204Z,101733.97
2018-09-08T05:13:43.045Z,101725.73
2018-09-08T05:16:11.673Z,101731.16
2018-09-08T05:18:41.400Z,101729.30
2018-09-08T05:21:10.066Z,101737.30
2018-09-08T05:23:38.747Z,101740.06
2018-09-08T05:26:07.385Z,101741.22
2018-09-08T05:28:36.099Z,101747.79
2018-09-08T05:31:04.839Z,101738.22
2018-09-08T05:33:33.510Z,101748.87
2018-09-08T05:36:02.210Z,101745.47
2018-09-08T05:38:30.898Z,101747.30
2018-09-08T05:40:59.575Z,101746.83
2018-09-08T05:43:28.182Z,101753.77
2018-09-08T05:45:56.878Z,101749.13
2018-09-08T05:48:25.590Z,101749.66
2018-09-08T05:50:54.319Z,101754.30
2018-09-08T05:53:23.055Z,101758.63
2018-09-08T05:55:51.738Z,101764.88
2018-09-08T05:58:20.407Z,101762.03
2018-09-08T06:00:49.044Z,101763.12
2018-09-08T06:03:17.714Z,101769.27
2018-09-08T06:05:46.425Z,101764.57
2018-09-08T06:08:15.051Z,101766.80
2018-09-08T06:10:43.729Z,101768.90
2018-09-08T06:13:12.532Z,101770.72
2018-09-08T06:15:41.703Z,101771.50
2018-09-08T06:18:10.324Z,101778.97
2018-09-08T06:20:39.024Z,101773.69
2018-09-08T06:23:07.720Z,101774.66
2018-09-08T06:25:36.416Z,101770.20
2018-09-08T06:28:05.017Z,101763.67
2018-09-08T06:30:33.624Z,101766.98
2018-09-08T06:33:02.269Z,101756.55
2018-09-08T06:35:30.980Z,101757.92
2018-09-08T06:37:59.659Z,101762.69
2018-09-08T06:40:28.338Z,101764.25
2018-09-08T06:42:57.047Z,101768.03
2018-09-08T06:45:25.706Z,101755.66
2018-09-08T06:47:54.422Z,101750.27
2018-09-08T06:50:23.047Z,101752.79
2018-09-08T06:52:51.741Z,101757.61
2018-09-08T06:55:20.337Z,101766.91
2018-09-08T06:57:49.053Z,101763.69
2018-09-08T07:00:17.674Z,101754.97
2018-09-08T07:02:46.390Z,101753.61
2018-09-08T07:05:15.183Z,101758.92
2018-09-08T07:07:43.903Z,101754.86
2018-09-08T07:10:12.598Z,101762.84
2018-09-08T07:12:41.997Z,101753.30
2018-09-08T07:15:10.713Z,101761.28
2018-09-08T07:17:39.387Z,101761.15
2018-09-08T07:20:08.212Z,101763.05
2018-09-08T07:22:36.843Z,101772.83
2018-09-08T07:25:06.479Z,101763.51
2018-09-08T07:27:35.147Z,101759.37
2018-09-08T07:30:03.948Z,101756.97
2018-09-08T07:32:32.619Z,101760.92
2018-09-08T07:35:01.343Z,101756.91
2018-09-08T07:37:30.124Z,101755.05
2018-09-08T07:39:58.813Z,101756.83
2018-09-08T07:42:27.507Z,101761.44
2018-09-08T07:44:56.194Z,101758.73
2018-09-08T07:47:24.815Z,101766.23
2018-09-08T07:49:53.514Z,101762.28
2018-09-08T07:52:22.167Z,101763.31
2018-09-08T07:54:50.825Z,101768.10
2018-09-08T07:57:19.517Z,101774.61
2018-09-08T07:59:48.242Z,101767.02
2018-09-08T08:02:16.909Z,101772.39
2018-09-08T08:04:45.619Z,101767.95
2018-09-08T08:07:15.106Z,101775.16
2018-09-08T08:09:45.015Z,101781.78
2018-09-08T08:12:13.889Z,101783.41
2018-09-08T08:14:42.557Z,101781.36
2018-09-08T08:17:12.248Z,101788.19
2018-09-08T08:19:41.037Z,101786.09
2018-09-08T08:22:10.424Z,101790.27
2018-09-08T08:24:39.254Z,101779.88
2018-09-08T08:27:08.054Z,101785.37
2018-09-08T08:29:37.022Z,101782.52
2018-09-08T08:32:06.275Z,101789.44
2018-09-08T08:34:35.262Z,101785.84
2018-09-08T08:37:04.290Z,101782.75
2018-09-08T08:39:33.233Z,101784.25
2018-09-08T08:42:02.036Z,101784.16
2018-09-08T08:44:30.834Z,101788.86
2018-09-08T08:46:59.723Z,101798.59
2018-09-08T08:49:29.112Z,101793.25
2018-09-08T08:52:08.907Z,101782.72
2018-09-08T08:54:44.289Z,101785.72
2018-09-08T08:57:13.282Z,101776.55
2018-09-08T08:59:42.526Z,101777.34
2018-09-08T09:02:12.359Z,101768.84
2018-09-08T09:04:41.703Z,101775.53
2018-09-08T09:07:13.018Z,101772.34
2018-09-08T09:09:42.677Z,101780.41
2018-09-08T09:12:13.449Z,101768.43
2018-09-08T09:14:42.512Z,101773.67
2018-09-08T09:17:11.367Z,101770.47
2018-09-08T09:19:51.118Z,101765.92
2018-09-08T09:22:31.073Z,101761.79
2018-09-08T09:25:03.852Z,101764.35
2018-09-08T09:27:34.869Z,101768.98
2018-09-08T09:30:03.897Z,101774.86
2018-09-08T09:32:32.586Z,101772.33
2018-09-08T09:35:01.266Z,101766.25
2018-09-08T09:37:29.974Z,101768.12
2018-09-08T09:39:59.333Z,101764.42
2018-09-08T09:42:28.148Z,101768.06
2018-09-08T09:44:56.907Z,101765.25
2018-09-08T09:47:25.544Z,101765.41
2018-09-08T09:49:54.281Z,101763.36
2018-09-08T09:52:22.995Z,101768.09
2018-09-08T09:54:52.423Z,101762.22
2018-09-08T09:57:22.731Z,101759.11
2018-09-08T09:59:51.821Z,101767.34
2018-09-08T10:02:51.531Z,101769.02
2018-09-08T10:05:21.536Z,101760.98
2018-09-08T10:07:51.000Z,101761.27
2018-09-08T10:10:21.179Z,101770.48
2018-09-08T10:12:50.138Z,101775.36
2018-09-08T10:15:18.935Z,101779.26
2018-09-08T10:17:47.673Z,101770.80
2018-09-08T10:20:17.778Z,101779.85
2018-09-08T10:22:47.082Z,101778.29
2018-09-08T10:25:17.022Z,101786.09
2018-09-08T10:27:46.348Z,101780.33
2018-09-08T10:30:15.449Z,101781.73
2018-09-08T10:32:44.903Z,101776.59
2018-09-08T10:35:13.872Z,101773.77
2018-09-08T10:37:42.722Z,101769.33
2018-09-08T10:40:12.449Z,101771.87
2018-09-08T10:42:41.292Z,101771.67
2018-09-08T10:45:10.348Z,101777.13
2018-09-08T10:47:39.506Z,101778.52
2018-09-08T10:50:09.218Z,101770.09
2018-09-08T10:52:42.248Z,101768.27
2018-09-08T10:55:11.095Z,101766.84
2018-09-08T10:57:40.498Z,101760.45
2018-09-08T11:00:09.806Z,101764.45
2018-09-08T11:02:38.834Z,101756.08
2018-09-08T11:05:08.210Z,101762.56
2018-09-08T11:07:37.055Z,101765.63
2018-09-08T11:10:06.505Z,101763.81
2018-09-08T11:12:35.479Z,101761.75
2018-09-08T11:15:05.112Z,101755.53
2018-09-08T11:17:34.617Z,101758.81
2018-09-08T11:20:03.472Z,101759.06
2018-09-08T11:22:32.484Z,101754.46
2018-09-08T11:25:01.226Z,101753.75
2018-09-08T11:27:30.518Z,101753.64
2018-09-08T11:30:00.145Z,101744.61
2018-09-08T11:32:29.227Z,101751.94
2018-09-08T11:34:58.826Z,101740.58
2018-09-08T11:37:27.639Z,101744.84
2018-09-08T11:39:56.937Z,101749.68
2018-09-08T11:42:25.923Z,101744.08
2018-09-08T11:44:55.637Z,101743.52
2018-09-08T11:47:24.539Z,101740.62
2018-09-08T11:49:53.444Z,101743.33
2018-09-08T11:52:22.452Z,101749.64
2018-09-08T11:54:51.424Z,101742.54
2018-09-08T11:57:20.283Z,101736.91
2018-09-08T11:59:49.170Z,101745.59
2018-09-08T12:02:18.061Z,101742.91
2018-09-08T12:04:47.229Z,101733.66
2018-09-08T12:07:16.089Z,101740.89
2018-09-08T12:09:44.945Z,101734.96
2018-09-08T12:12:14.383Z,101737.11
2018-09-08T12:14:43.103Z,101750.21
2018-09-08T12:17:12.138Z,101735.45
2018-09-08T12:19:41.592Z,101728.75
2018-09-08T12:22:10.469Z,101728.46
2018-09-08T12:24:39.843Z,101745.97
2018-09-08T12:27:08.686Z,101743.09
2018-09-08T12:29:37.608Z,101744.59
2018-09-08T12:32:07.063Z,101741.42
2018-09-08T12:34:36.651Z,101733.66
2018-09-08T12:37:05.483Z,101738.20
2018-09-08T12:39:34.111Z,101735.09
2018-09-08T12:42:02.816Z,101735.59
2018-09-08T12:44:31.502Z,101721.87
2018-09-08T12:47:00.233Z,101722.59
2018-09-08T12:49:29.081Z,101715.27
2018-09-08T12:51:57.777Z,101707.76
2018-09-08T12:54:26.450Z,101711.77
2018-09-08T12:56:55.132Z,101724.27
2018-09-08T12:59:23.766Z,101718.88
2018-09-08T13:01:52.523Z,101725.65
2018-09-08T13:04:21.189Z,101729.58
2018-09-08T13:06:50.780Z,101733.85
2018-09-08T13:09:19.647Z,101724.97
2018-09-08T13:11:48.647Z,101726.49
2018-09-08T13:14:17.511Z,101720.94
2018-09-08T13:16:46.983Z,101723.27
2018-09-08T13:19:15.843Z,101719.88
2018-09-08T13:21:45.411Z,101715.80
2018-09-08T13:24:14.092Z,101726.13
2018-09-08T13:26:43.432Z,101724.70
2018-09-08T13:29:12.238Z,101722.67
2018-09-08T13:31:41.527Z,101726.23
2018-09-08T13:34:10.626Z,101723.33
2018-09-08T13:36:39.543Z,101718.00
2018-09-08T13:39:09.368Z,101717.11
2018-09-08T13:41:38.497Z,101720.20
2018-09-08T13:44:07.901Z,101716.05
2018-09-08T13:46:36.781Z,101711.75
2018-09-08T13:49:05.808Z,101719.96
2018-09-08T13:51:34.681Z,101718.73
2018-09-08T13:54:03.725Z,101723.66
2018-09-08T13:56:32.598Z,101710.53
2018-09-08T13:59:01.459Z,101712.11
2018-09-08T14:01:30.283Z,101710.53
2018-09-08T14:03:59.208Z,101719.04
2018-09-08T14:06:27.967Z,101722.56
2018-09-08T14:08:56.861Z,101726.17
2018-09-08T14:11:25.699Z,101726.28
2018-09-08T14:13:55.526Z,101714.91
2018-09-08T14:16:24.340Z,101719.34
2018-09-08T14:18:53.155Z,101710.95
2018-09-08T14:21:22.012Z,101708.94
2018-09-08T14:23:51.620Z,101720.78
2018-09-08T14:26:20.486Z,101721.31
2018-09-08T14:28:49.356Z,101731.24
2018-09-08T14:31:18.283Z,101723.41
2018-09-08T14:33:47.146Z,101719.98
2018-09-08T14:36:16.388Z,101704.03
2018-09-08T14:38:45.638Z,101717.17
2018-09-08T14:41:14.467Z,101709.25
2018-09-08T14:43:43.836Z,101714.80
2018-09-08T14:46:12.731Z,101709.75
2018-09-08T14:48:41.695Z,101708.41
2018-09-08T14:51:10.546Z,101705.28
2018-09-08T14:53:39.627Z,101710.23
2018-09-08T14:56:08.405Z,101716.97
2018-09-08T14:58:37.507Z,101710.24
2018-09-08T15:01:06.631Z,101704.56
2018-09-08T15:03:36.267Z,101700.16
2018-09-08T15:06:05.207Z,101702.17
2018-09-08T15:08:34.141Z,101697.08
2018-09-08T15:11:03.290Z,101691.34
2018-09-08T15:13:33.171Z,101698.13
2018-09-08T15:16:03.086Z,101694.27
2018-09-08T15:18:31.982Z,101694.44
2018-09-08T15:21:00.697Z,101691.98
2018-09-08T15:23:29.406Z,101695.80
2018-09-08T15:25:58.178Z,101696.70
2018-09-08T15:28:27.567Z,101688.80
2018-09-08T15:30:56.268Z,101688.66
2018-09-08T15:33:25.850Z,101695.81
2018-09-08T15:35:54.557Z,101691.67
2018-09-08T15:38:23.241Z,101695.43
2018-09-08T15:40:52.058Z,101691.52
2018-09-08T15:43:21.517Z,101686.59
2018-09-08T15:45:50.292Z,101701.63
2018-09-08T15:48:18.987Z,101700.63
2018-09-08T15:50:47.646Z,101696.16
2018-09-08T15:53:16.410Z,101703.29
2018-09-08T15:55:45.042Z,101700.47
2018-09-08T15:58:13.846Z,101701.52
2018-09-08T16:00:42.546Z,101703.36
2018-09-08T16:03:11.290Z,101707.67
2018-09-08T16:05:39.991Z,101713.25
2018-09-08T16:08:08.822Z,101718.41
2018-09-08T16:10:38.352Z,101724.98
2018-09-08T16:13:08.041Z,101729.47
2018-09-08T16:15:37.118Z,101728.23
2018-09-08T16:18:06.281Z,101718.81
2018-09-08T16:20:35.016Z,101737.37
2018-09-08T16:23:03.747Z,101714.95
2018-09-08T16:25:32.481Z,101723.10
2018-09-08T16:28:01.283Z,101716.77
2018-09-08T16:30:29.965Z,101704.83
2018-09-08T16:32:58.690Z,101707.50
2018-09-08T16:35:27.436Z,101711.95
2018-09-08T16:37:56.170Z,101711.87
2018-09-08T16:40:24.872Z,101712.58
2018-09-08T16:42:53.617Z,101705.88
2018-09-08T16:45:22.317Z,101699.88
2018-09-08T16:47:51.013Z,101695.22
2018-09-08T16:50:19.763Z,101691.77
2018-09-08T16:52:48.487Z,101695.84
2018-09-08T16:55:18.090Z,101700.68
2018-09-08T16:57:46.745Z,101694.55
2018-09-08T17:00:15.442Z,101689.05
2018-09-08T17:02:44.272Z,101701.77
2018-09-08T17:05:14.057Z,101706.67
2018-09-08T17:07:42.676Z,101696.54
2018-09-08T17:10:11.407Z,101699.87
2018-09-08T17:12:40.157Z,101694.28
2018-09-08T17:15:09.067Z,101690.73
2018-09-08T17:17:37.813Z,101699.14
2018-09-08T17:22:40.111Z,101694.19
2018-09-08T17:25:08.818Z,101692.27
2018-09-08T17:27:37.621Z,101693.08
2018-09-08T17:30:06.629Z,101689.17
2018-09-08T17:32:35.340Z,101690.68
2018-09-08T17:35:04.120Z,101688.72
2018-09-08T17:37:32.866Z,101693.89
2018-09-08T17:40:01.767Z,101690.33
2018-09-08T17:42:30.524Z,101683.14
2018-09-08T17:44:59.248Z,101685.42
2018-09-08T17:47:28.131Z,101687.47
2018-09-08T17:49:56.832Z,101676.95
2018-09-08T17:52:25.558Z,101688.62
2018-09-08T17:54:54.282Z,101694.34
2018-09-08T17:57:23.105Z,101695.27
2018-09-08T17:59:51.770Z,101695.25
2018-09-08T18:02:20.523Z,101698.43
2018-09-08T18:04:49.260Z,101693.42
2018-09-08T18:07:18.660Z,101699.14
2018-09-08T18:09:47.731Z,101694.98
2018-09-08T18:12:16.430Z,101696.12
2018-09-08T18:14:45.162Z,101701.86
2018-09-08T18:17:14.264Z,101707.57
2018-09-08T18:19:42.960Z,101707.14
2018-09-08T18:22:11.776Z,101705.87
2018-09-08T18:24:40.605Z,101703.44
2018-09-08T18:27:09.447Z,101710.30
2018-09-08T18:29:38.145Z,101707.55
2018-09-08T18:32:06.911Z,101713.03
2018-09-08T18:34:35.608Z,101722.75
2018-09-08T18:37:04.320Z,101723.09
2018-09-08T18:39:32.972Z,101729.34
2018-09-08T18:42:01.885Z,101733.94
2018-09-08T18:44:30.602Z,101736.94
2018-09-08T18:46:59.287Z,101728.97
2018-09-08T18:49:28.056Z,101723.84
2018-09-08T18:51:56.763Z,101727.13
2018-09-08T18:54:25.460Z,101724.56
2018-09-08T18:56:54.157Z,101729.59
2018-09-08T18:59:22.797Z,101726.39
2018-09-08T19:01:51.540Z,101736.94
2018-09-08T19:04:20.256Z,101745.75
2018-09-08T19:06:49.075Z,101739.97
2018-09-08T19:09:17.792Z,101742.09
2018-09-08T19:11:46.640Z,101738.70
2018-09-08T19:14:20.528Z,101740.53
2018-09-08T19:16:49.372Z,101738.70
2018-09-08T19:19:18.226Z,101732.50
2018-09-08T19:21:46.940Z,101737.15
2018-09-08T19:24:20.698Z,101731.23
2018-09-08T19:26:49.396Z,101742.48
2018-09-08T19:29:23.175Z,101746.30
2018-09-08T19:31:51.911Z,101737.56
2018-09-08T19:34:20.657Z,101746.33
2018-09-08T19:36:49.372Z,101746.09
2018-09-08T19:39:18.078Z,101742.47
2018-09-08T19:41:46.749Z,101747.98
2018-09-08T19:44:15.483Z,101749.61
2018-09-08T19:46:49.700Z,101755.30
2018-09-08T19:49:18.416Z,101759.47
2018-09-08T19:51:47.242Z,101764.25
2018-09-08T19:54:15.964Z,101768.94
2018-09-08T19:56:49.985Z,101758.91
2018-09-08T19:59:18.646Z,101739.88
2018-09-08T20:01:47.385Z,101726.93
2018-09-08T20:04:16.041Z,101744.69
2018-09-08T20:06:44.707Z,101746.28
2018-09-08T20:09:13.421Z,101749.11
2018-09-08T20:11:42.071Z,101745.87
2018-09-08T20:14:10.802Z,101751.13
2018-09-08T20:16:39.522Z,101752.59
2018-09-08T20:19:08.156Z,101751.22
2018-09-08T20:21:36.871Z,101755.33
2018-09-08T20:24:05.576Z,101758.73
2018-09-08T20:26:34.318Z,101757.87
2018-09-08T20:29:03.018Z,101754.09
2018-09-08T20:31:31.717Z,101757.36
2018-09-08T20:34:00.451Z,101761.25
2018-09-08T20:36:29.056Z,101763.19
2018-09-08T20:38:57.780Z,101759.45
2018-09-08T20:41:26.465Z,101766.31
2018-09-08T20:43:55.167Z,101770.66
2018-09-08T20:46:23.929Z,101771.56
2018-09-08T20:48:52.581Z,101781.75
2018-09-08T20:51:21.324Z,101777.50
2018-09-08T20:53:50.084Z,101779.73
2018-09-08T20:56:18.826Z,101781.52
2018-09-08T20:58:47.551Z,101777.50
2018-09-08T21:01:16.245Z,101780.49
2018-09-08T21:03:44.900Z,101778.80
2018-09-08T21:06:14.654Z,101775.42
2018-09-08T21:08:43.374Z,101778.63
2018-09-08T21:11:12.020Z,101776.87
2018-09-08T21:13:40.707Z,101769.63
2018-09-08T21:16:09.361Z,101766.55
2018-09-08T21:18:38.032Z,101764.57
2018-09-08T21:21:06.969Z,101767.66
2018-09-08T21:23:35.648Z,101761.57
2018-09-08T21:26:04.386Z,101766.47
2018-09-08T21:28:33.056Z,101757.16
2018-09-08T21:31:01.799Z,101771.31
2018-09-08T21:33:30.427Z,101769.77
2018-09-08T21:35:59.085Z,101764.12
2018-09-08T21:38:27.767Z,101760.13
2018-09-08T21:40:56.435Z,101761.03
2018-09-08T21:43:25.086Z,101756.88
2018-09-08T21:45:53.774Z,101757.92
2018-09-08T21:48:22.464Z,101751.98
2018-09-08T21:50:51.166Z,101755.73
2018-09-08T21:53:19.826Z,101755.21
2018-09-08T21:55:48.482Z,101755.96
2018-09-08T21:58:17.184Z,101752.00
2018-09-08T22:00:51.096Z,101755.83
2018-09-08T22:03:19.892Z,101752.30
2018-09-08T22:05:48.549Z,101750.14
2018-09-08T22:08:17.374Z,101757.30
2018-09-08T22:10:46.071Z,101750.64
2018-09-08T22:13:15.013Z,101741.30
2018-09-08T22:20:40.171Z,101745.11
2018-09-08T22:23:08.975Z,101745.69
2018-09-08T22:25:37.631Z,101749.95
2018-09-08T22:28:06.480Z,101751.84
2018-09-08T22:30:35.137Z,101756.88
2018-09-08T22:33:03.856Z,101756.93
2018-09-08T22:35:32.491Z,101756.98
2018-09-08T22:38:01.131Z,101754.86
2018-09-08T22:40:29.889Z,101756.44
2018-09-08T22:42:58.573Z,101755.16
2018-09-08T22:45:27.277Z,101758.83
2018-09-08T22:47:56.204Z,101754.97
2018-09-08T22:50:24.992Z,101755.98
2018-09-08T22:52:53.731Z,101753.30
2018-09-08T22:55:22.382Z,101744.15
2018-09-08T22:57:50.962Z,101741.89
2018-09-08T23:00:19.566Z,101748.41
2018-09-08T23:02:48.219Z,101749.13
2018-09-08T23:05:16.830Z,101753.36
2018-09-08T23:07:45.444Z,101747.88
2018-09-08T23:10:15.000Z,101748.25
2018-09-08T23:12:43.597Z,101749.09
2018-09-08T23:15:12.222Z,101752.63
2018-09-08T23:17:40.992Z,101749.98
2018-09-08T23:20:09.605Z,101735.73
2018-09-08T23:22:38.157Z,101742.43
2018-09-08T23:25:06.798Z,101745.15
2018-09-08T23:27:35.359Z,101744.77
2018-09-08T23:30:04.070Z,101742.59
2018-09-08T23:32:32.700Z,101747.54
2018-09-08T23:35:01.387Z,101754.56
2018-09-08T23:37:30.030Z,101751.77
2018-09-08T23:39:58.696Z,101748.94
2018-09-08T23:42:27.340Z,101750.45
2018-09-08T23:44:55.964Z,101754.65
2018-09-08T23:47:24.641Z,101746.13
2018-09-08T23:49:53.309Z,101749.90
2018-09-08T23:52:21.931Z,101749.34
2018-09-08T23:54:50.865Z,101753.20
2018-09-08T23:57:19.562Z,101752.87
2018-09-08T23:59:48.270Z,101744.66
